Nearby METAR (Airport) Reports

 

KPRN - Greenville, Alabama, USA
Distance from station: WNW 17mi, 28km
Updated: Fri, 21-Jul-2017 7:19pm CDT
Heavy thunderstorm, Rain, Mist, Overcast
Heavy thunderstorm, Rain, Mist, Overcast
 Wind from N
Wind: N 12 mph , 19 km/h
Temperature: 75°F , 24°C
Dew Point: 72°F , 22°C
Humidity: 89%
Barometer: 30.03 inHg , 1016.9 hPa
Summary: Heavy thunderstorm, Rain, Mist
Clouds: Overcast
Visibility: 1 3/4 miles , 5 km
Cloud details: Partly cloudy 3000 ft
Overcast 3400 ft
2017/07/22 00:19 KPRN 220019Z AUTO 36010KT 1 3/4SM +TSRA BR SCT030 OVC034 24/22 A3003 RMK AO2 RAB05 TSE03B19 P0015 T02390217
KTOI - Troy, Alabama, USA
Distance from station: ENE 21mi, 34km
Updated: Fri, 21-Jul-2017 7:30pm CDT
Partly cloudy
Partly cloudy
 Wind from calm
Wind: Calm
Temperature: 77°F , 25°C
Dew Point: 72°F , 22°C
Humidity: 83%
Barometer: 30.04 inHg , 1017.3 hPa
Clouds: Partly cloudy
Visibility: 10 miles , 16 km
Cloud details: Few Clouds 4100 ft
Partly cloudy 7500 ft
2017/07/22 00:30 KTOI 220030Z AUTO 00000KT 10SM FEW041 SCT075 25/22 A3004 RMK AO2 T02500222
K79J - Andalusia/Opp Ar, Alabama, USA
Distance from station: S 29mi, 47km
Updated: Fri, 21-Jul-2017 6:56pm CDT
Light thunderstorm, Rain, Overcast
Light thunderstorm, Rain, Overcast
 Wind from E
Wind: E 7 mph , 11 km/h
Temperature: 77°F , 25°C
Dew Point: 70°F , 21°C
Humidity: 79%
Barometer: 30.02 inHg , 1016.6 hPa
Summary: Light thunderstorm, Rain
Clouds: Overcast
Visibility: 10 miles , 16 km
Cloud details: Partly cloudy 1900 ft
Mostly cloudy 3200 ft
Overcast 11000 ft
2017/07/21 23:56 K79J 212356Z AUTO 08006KT 10SM -TSRA SCT019 BKN032 OVC110 25/21 A3002 RMK AO2 RAB18E28B53 SLP162 P0000 60000 T02500211 10378 20250 53020
 
KMGM - Montgomery, Alabama, USA
Distance from station: N 39mi, 63km
Updated: Fri, 21-Jul-2017 7:29pm CDT
Clear
Clear
 Wind from W
Wind: W 3 mph , 6 km/h
Temperature: 75°F , 24°C
Dew Point: 72°F , 22°C
Humidity: 89%
Barometer: 30.00 inHg , 1015.9 hPa
Clouds: Clear
Visibility: 10 miles , 16 km
2017/07/22 00:29 KMGM 220029Z 28003KT 10SM CLR 24/22 A3000 RMK AO2 LTG DSNT ALQDS RAE2358 P0000 T02390217
KMXF - Maxwell Afb/Mgm, Alabama, USA
Distance from station: N 44mi, 70km
Updated: Fri, 21-Jul-2017 7:18pm CDT
Few Clouds
Few Clouds
 Wind from W
Wind: W 6 mph , 9 km/h
Temperature: 73°F , 23°C
Dew Point: 72°F , 22°C
Humidity: 94%
Barometer: 30.01 inHg , 1016.3 hPa
Clouds: Few Clouds
Visibility: 10 miles , 16 km
Cloud details: Few Clouds 8000 ft
2017/07/22 00:18 KMXF 220018Z AUTO 27005KT 10SM FEW080 23/22 A3001 RMK AO2 LTG DSNT NW-NE RAE02RAB09E12DZB12E18 TSE12 SLP164
KLOR - Lowe Ahp/Ft. Ruc, Alabama, USA
Distance from station: SE 44mi, 71km
Updated: Fri, 21-Jul-2017 6:11pm CDT
NOT Current
Nearby thunderstorm, Clear
Nearby thunderstorm, Clear
 Wind from S
Wind: S 7 mph , 11 km/h
Temperature: 81°F , 27°C
Heat Index: 85°F , 29°C
Dew Point: 70°F , 21°C
Humidity: 70%
Barometer: 30.01 inHg , 1016.3 hPa
Summary: Nearby Thunderstorm
Clouds: Clear
Visibility: 10 miles , 16 km
2017/07/21 23:11 KLOR 212311Z AUTO 18006KT 10SM VCTS CLR 27/21 A3001 RMK AO2 PRESRR SLP143
 
KGZH - Evergreen, Alabama, USA
Distance from station: WSW 46mi, 75km
Updated: Fri, 21-Jul-2017 7:22pm CDT
Nearby thunderstorm, Clear
Nearby thunderstorm, Clear
 Wind from NE
Wind: NE 10 mph , 17 km/h
Temperature: 79°F , 26°C
Dew Point: 75°F , 24°C
Humidity: 89%
Barometer: 30.03 inHg , 1016.9 hPa
Summary: Nearby Thunderstorm
Clouds: Clear
Visibility: 10 miles , 16 km
2017/07/22 00:22 KGZH 220022Z AUTO 05009KT 10SM VCTS CLR 26/24 A3003 RMK AO2 LTG DSNT N-SE T02610244
K0J4 - Florala Muni, Alabama, USA
Distance from station: S 47mi, 76km
Updated: Fri, 21-Jul-2017 7:25pm CDT
Thunderstorm, Mostly cloudy
Thunderstorm, Mostly cloudy
 Wind from calm
Wind: Calm
Temperature: 81°F , 27°C
Heat Index: 87°F , 31°C
Dew Point: 75°F , 24°C
Humidity: 84%
Barometer: 30.03 inHg , 1016.9 hPa
Summary: Thunderstorm
Clouds: Mostly cloudy
Visibility: 10 miles , 16 km
Cloud details: Few Clouds 3000 ft
Mostly cloudy 4000 ft
2017/07/22 00:25 K0J4 220025Z AUTO 00000KT 10SM TS FEW030 BKN040 27/24 A3003 RMK AO2 TSB22 T02720239
KOZR - Ozark/Cairns Aaf, Alabama, USA
Distance from station: SE 49mi, 78km
Updated: Fri, 21-Jul-2017 7:16pm CDT
Mostly cloudy
Mostly cloudy
 Wind from SW
Wind: SW 6 mph , 9 km/h
Temperature: 79°F , 26°C
Dew Point: 70°F , 21°C
Humidity: 74%
Barometer: 30.03 inHg , 1016.9 hPa
Clouds: Mostly cloudy
Visibility: 10 miles , 16 km
Cloud details: Mostly cloudy 1600 ft
Mostly cloudy 5000 ft
2017/07/22 00:16 KOZR 220016Z AUTO 23005KT 10SM BKN016 BKN050 26/21 A3003 RMK AO2 BKN016 V SCT SLP169
 
KHEY - Ft Rucker/Hanche, Alabama, USA
Distance from station: ESE 49mi, 79km
Updated: Fri, 21-Jul-2017 7:24pm CDT
Overcast
Overcast
 Wind from S
Wind: S 3 mph , 6 km/h
Temperature: 79°F , 26°C
Dew Point: 70°F , 21°C
Humidity: 74%
Barometer: 30.02 inHg , 1016.6 hPa
Clouds: Overcast
Visibility: 10 miles , 16 km
Cloud details: Partly cloudy 1600 ft
Mostly cloudy 5000 ft
Mostly cloudy 6000 ft
Overcast 20000 ft
2017/07/22 00:24 KHEY 220024Z AUTO 19003KT 10SM SCT016 BKN050 BKN060 OVC200 26/21 A3002 RMK AO2 LTG DSNT W SLP165
KDHN - Dothan, Alabama, USA
Distance from station: ESE 61mi, 97km
Updated: Fri, 21-Jul-2017 6:53pm CDT
Clear
Clear
 Wind from SW
Wind: SW 12 mph , 19 km/h
Temperature: 81°F , 27°C
Heat Index: 85°F , 29°C
Dew Point: 70°F , 21°C
Humidity: 70%
Barometer: 30.05 inHg , 1017.6 hPa
Clouds: Clear
Visibility: 10 miles , 16 km
2017/07/21 23:53 KDHN 212353Z 22010KT 10SM CLR 27/21 A3005 RMK AO2 SLP170 T02670211 10350 20244 53013
KCEW - Crestview, Florida, USA
Distance from station: S 66mi, 107km
Updated: Fri, 21-Jul-2017 6:53pm CDT
Few Clouds
Few Clouds
 Wind from WSW
Wind: WSW 6 mph , 9 km/h
Temperature: 82°F , 28°C
Heat Index: 89°F , 32°C
Dew Point: 75°F , 24°C
Humidity: 79%
Barometer: 30.03 inHg , 1016.9 hPa
Clouds: Few Clouds
Visibility: 10 miles , 16 km
Cloud details: Few Clouds 4000 ft
2017/07/21 23:53 KCEW 212353Z AUTO 25005KT 10SM FEW040 28/24 A3003 RMK AO2 SLP165 T02830244 10344 20278 53011
 
KEUF - Eufaula, Alabama, USA
Distance from station: ENE 73mi, 118km
Updated: Fri, 21-Jul-2017 6:58pm CDT
Light rain, Mostly cloudy
Light rain, Mostly cloudy
 Wind from calm
Wind: Calm
Temperature: 79°F , 26°C
Dew Point: 75°F , 24°C
Humidity: 89%
Barometer: 30.02 inHg , 1016.6 hPa
Summary: Light rain
Clouds: Mostly cloudy
Cloud details: Mostly cloudy 4100 ft
Mostly cloudy 8500 ft
Mostly cloudy 10000 ft
2017/07/21 23:58 KEUF 212358Z AUTO 00000KT -RA BKN041 BKN085 BKN100 26/24 A3002 RMK AO2 RAB00 TSE53 SLP160 P0005 60005 T02560239 10367 20256 51020
KJKA - Gulf Shores, Alabama, USA
Distance from station: SSW 132mi, 212km
Updated: Fri, 21-Jul-2017 7:15pm CDT
Partly cloudy
Partly cloudy
 Wind from SW
Wind: SW 6 mph , 9 km/h
Temperature: 84°F , 29°C
Heat Index: 96°F , 36°C
Dew Point: 79°F , 26°C
Humidity: 84%
Barometer: 30.00 inHg , 1015.9 hPa
Clouds: Partly cloudy
Visibility: 10 miles , 16 km
Cloud details: Partly cloudy 2000 ft
Partly cloudy 2600 ft
2017/07/22 00:15 KJKA 220015Z AUTO 23005KT 10SM SCT020 SCT026 29/26 A3000 RMK AO2 T02910263
KLSF - Ft Benning/Colum, Georgia, USA
Distance from station: SNE 89mi, 143km
Updated: Fri, 21-Jul-2017 6:58pm CDT
Partly cloudy
Partly cloudy
 Wind from S
Wind: S 6 mph , 9 km/h
Temperature: 81°F , 27°C
Heat Index: 87°F , 31°C
Dew Point: 75°F , 24°C
Humidity: 84%
Barometer: 29.99 inHg , 1015.6 hPa
Clouds: Partly cloudy
Visibility: 10 miles , 16 km
Cloud details: Partly cloudy 5500 ft
Partly cloudy 7000 ft
2017/07/21 23:58 KLSF 212358Z AUTO 19005KT 10SM SCT055 SCT070 27/24 A2999 RMK AO2 LTG DSNT SW-W TSE47 SLP158 60004 T02680236 10357 20268 53022
 
KMOB - Mobile/Bates, Alabama, USA
Distance from station: SW 125mi, 202km
Updated: Fri, 21-Jul-2017 6:56pm CDT
Mostly cloudy
Mostly cloudy
 Wind from calm
Wind: Calm
Temperature: 84°F , 29°C
Heat Index: 92°F , 33°C
Dew Point: 75°F , 24°C
Humidity: 74%
Barometer: 30.01 inHg , 1016.3 hPa
Clouds: Mostly cloudy
Visibility: 10 miles , 16 km
Cloud details: Few Clouds 2500 ft
Few Clouds 15000 ft
Mostly cloudy 25000 ft
2017/07/21 23:56 KMOB 212356Z 00000KT 10SM FEW025 FEW150 BKN250 29/24 A3001 RMK AO2 SLP159 CB DSNT NE AND S AND SW T02890239 10350 20278 51004
KNMM - Meridian Nas, Mississippi, USA
Distance from station: WNW 151mi, 243km
Updated: Fri, 21-Jul-2017 7:28pm CDT
Clear
Clear
 Wind from calm
Wind: Calm
Temperature: 77°F , 25°C
Dew Point: 72°F , 22°C
Humidity: 83%
Barometer: 30.01 inHg , 1016.3 hPa
Clouds: Clear
Visibility: 10 miles , 16 km
2017/07/22 00:28 KNMM 220028Z AUTO 00000KT 10SM CLR 25/22 A3001 RMK AO2 TSE22 T02500222 $
KQHY - Hurlbert (Ft Walton Bch), Florida, USA
Distance from station: S 94mi, 151km
Updated: Fri, 21-Jul-2017 6:56pm CDT
Partly cloudy
Partly cloudy
 Wind from SW
Wind: SW 3 mph , 6 km/h
Temperature: 84°F , 29°C
Heat Index: 90°F , 32°C
Dew Point: 73°F , 23°C
Humidity: 70%
Barometer: 30.02 inHg , 1016.6 hPa
Clouds: Partly cloudy
Visibility: 10 miles , 16 km
Cloud details: Partly cloudy 23000 ft
2017/07/21 23:56 KQHY 212356Z AUTO 22003KT 10SM SCT230 29/23 A3002 RMK AO2 SLP172 T02920233 10306 20287 53001
 
KTCL - Tuscaloosa, Alabama, USA
Distance from station: NNW 129mi, 207km
Updated: Fri, 21-Jul-2017 6:53pm CDT
Clear
Clear
 Wind from calm
Wind: Calm
Temperature: 81°F , 27°C
Heat Index: 88°F , 31°C
Dew Point: 77°F , 25°C
Humidity: 89%
Barometer: 29.98 inHg , 1015.2 hPa
Clouds: Clear
Visibility: 10 miles , 16 km
2017/07/21 23:53 KTCL 212353Z 00000KT 10SM CLR 27/25 A2998 RMK AO2 LTG DSNT E SLP149 60000 T02670250 10356 20256 50002
KECP - Panama City, Florida, USA
Distance from station: SSE 122mi, 196km
Updated: Fri, 21-Jul-2017 6:53pm CDT
Clear
Clear
 Wind from S
Wind: S 6 mph , 9 km/h
Temperature: 81°F , 27°C
Heat Index: 87°F , 31°C
Dew Point: 75°F , 24°C
Humidity: 84%
Barometer: 29.99 inHg , 1015.6 hPa
Clouds: Clear
Visibility: 10 miles , 16 km
2017/07/21 23:53 KECP 212353Z 18005KT 10SM CLR 27/24 A2999 RMK AO2 SLP166 60063 T02670239 10289 20233 58007
KCBM - Columbus Afb, Mississippi, USA
Distance from station: NW 175mi, 282km
Updated: Fri, 21-Jul-2017 5:58pm CDT
NOT Current
Clear
Clear
 Wind from NNW
Wind: NNW 3 mph , 6 km/h
Temperature: 95°F , 35°C
Heat Index: 107°F , 42°C
Dew Point: 75°F , 24°C
Humidity: 53%
Barometer: 29.95 inHg , 1014.2 hPa
Clouds: Clear
Visibility: 10 miles , 16 km
2017/07/21 22:58 KCBM 212258Z AUTO 34003KT 10SM CLR 35/24 A2995 RMK AO2 SLP142 T03530242 TSNO $
 
KBHM - Birmingham, Alabama, USA
Distance from station: N 132mi, 212km
Updated: Fri, 21-Jul-2017 6:53pm CDT
Partly cloudy
Partly cloudy
 Wind from N
Wind: N 6 mph , 9 km/h
Temperature: 91°F , 33°C
Heat Index: 98°F , 37°C
Dew Point: 72°F , 22°C
Humidity: 52%
Barometer: 30.00 inHg , 1015.9 hPa
Clouds: Partly cloudy
Visibility: 10 miles , 16 km
Cloud details: Few Clouds 6500 ft
Partly cloudy 25000 ft
2017/07/21 23:53 KBHM 212353Z 35005KT 10SM FEW065 SCT250 33/22 A3000 RMK AO2 LTG DSNT SW SLP149 T03330222 10356 20333 53001
KAAF - Apalachicola, Florida, USA
Distance from station: SSE 156mi, 250km
Updated: Fri, 21-Jul-2017 6:53pm CDT
Clear
Clear
 Wind from S
Wind: S 8 mph , 13 km/h
Temperature: 84°F , 29°C
Heat Index: 94°F , 34°C
Dew Point: 77°F , 25°C
Humidity: 79%
Barometer: 29.99 inHg , 1015.6 hPa
Clouds: Clear
Visibility: 10 miles , 16 km
2017/07/21 23:53 KAAF 212353Z AUTO 17007KT 10SM CLR 29/25 A2999 RMK AO2 SLP155 T02890250 10328 20256 58012
KATL - Atlanta, Georgia, USA
Distance from station: NE 177mi, 287km
Updated: Fri, 21-Jul-2017 6:52pm CDT
Partly cloudy
Partly cloudy
 Wind from WSW
Wind: WSW 5 mph , 7 km/h
Temperature: 90°F , 32°C
Heat Index: 97°F , 36°C
Dew Point: 72°F , 22°C
Humidity: 55%
Barometer: 30.00 inHg , 1015.9 hPa
Clouds: Partly cloudy
Visibility: 10 miles , 16 km
Cloud details: Few Clouds 5500 ft
Partly cloudy 25000 ft
2017/07/21 23:52 KATL 212352Z 24004KT 10SM FEW055TCU SCT250 32/22 A3000 RMK AO2 SLP147 TCU OHD T03220217 10344 20322 53002
 
KGPT - Gulfport, Mississippi, USA
Distance from station: SW 192mi, 309km
Updated: Fri, 21-Jul-2017 6:53pm CDT
Clear
Clear
 Wind from calm
Wind: Calm
Temperature: 79°F , 26°C
Dew Point: 73°F , 23°C
Humidity: 84%
Barometer: 29.97 inHg , 1014.9 hPa
Clouds: Clear
Visibility: 10 miles , 16 km
2017/07/21 23:53 KGPT 212353Z 00000KT 10SM CLR 26/23 A2997 RMK AO2 LTG DSNT SE AND S SLP149 T02610228 10339 20244 58006
KNEW - New Orleans/Lake, Louisiana, USA
Distance from station: SW 255mi, 410km
Updated: Fri, 21-Jul-2017 7:29pm CDT
Thunderstorm, Partly cloudy
Thunderstorm, Partly cloudy
 Wind from NNE
Wind: NNE 5 mph , 7 km/h
Temperature: 84°F , 29°C
Heat Index: 96°F , 36°C
Dew Point: 79°F , 26°C
Humidity: 84%
Barometer: 30.00 inHg , 1015.9 hPa
Summary: Thunderstorm
Clouds: Partly cloudy
Visibility: 10 miles , 16 km
Cloud details: Few Clouds 9000 ft
Partly cloudy 11000 ft
2017/07/22 00:29 KNEW 220029Z 03004KT 10SM TS FEW090 SCT110 29/26 A3000 RMK AO2 TSB23 T02940256
KP92 - Salt Point, Louisiana, USA
Distance from station: SW 347mi, 559km
Updated: Fri, 21-Jul-2017 6:53pm CDT

 Wind from calm
Wind: Calm
Temperature: 81°F , 27°C
Heat Index: 87°F , 31°C
Dew Point: 75°F , 24°C
Humidity: 84%
Barometer: 29.97 inHg , 1014.9 hPa
2017/07/21 23:53 KP92 212353Z AUTO 00000KT 27/24 A2997 RMK AO1 SLP147 T02720244 10333 20256 56012 $